ePrivacy and GPDR Cookie Consent by Cookie Consent
EmailTwitter


Observations de surface / France / LFBO (07630)

Régions: Québec | Canada | États-Unis | Europe | France | UK | Ailleurs
Station
Affichage
Infos & localisation pour LFBO (07630) | Aide pour décoder les METARs

Observations prises le 2024-05-24 à 10H00 UTC à TOULOUSE/BLAGNAC, FR (LFBO)

Température: 18.0 Celsius

Point de rosée: 9.0 Celsius

Humidité relative: 56%

Vents: Nord-ouest à 9 km/h ou 5 noeuds.

Pression au niveau moyen de la mer: 102.00 kilopascals.

Observation METAR:

LFBO 241000Z AUTO 30005KT 210V360 CAVOK 18/09 Q1020 NOSIG=